sensor_id;sensor_type;location;lat;lon;timestamp;temperature;humidity
7331;DHT22;3706;49.198;7.064;2022-09-01T00:01:42;13.70;99.90
7331;DHT22;3706;49.198;7.064;2022-09-01T00:04:12;13.60;99.90
7331;DHT22;3706;49.198;7.064;2022-09-01T00:06:41;13.60;99.90
7331;DHT22;3706;49.198;7.064;2022-09-01T00:09:11;13.70;99.90
7331;DHT22;3706;49.198;7.064;2022-09-01T00:11:40;13.70;99.90
7331;DHT22;3706;49.198;7.064;2022-09-01T00:14:09;13.80;99.90
7331;DHT22;3706;49.198;7.064;2022-09-01T00:16:37;13.80;99.90
7331;DHT22;3706;49.198;7.064;2022-09-01T00:19:05;13.80;99.90
7331;DHT22;3706;49.198;7.064;2022-09-01T00:21:38;13.80;99.90
7331;DHT22;3706;49.198;7.064;2022-09-01T00:24:06;13.80;99.90
7331;DHT22;3706;49.198;7.064;2022-09-01T00:26:34;13.80;99.90
7331;DHT22;3706;49.198;7.064;2022-09-01T00:29:01;13.70;99.90
7331;DHT22;3706;49.198;7.064;2022-09-01T00:31:28;13.60;99.90
7331;DHT22;3706;49.198;7.064;2022-09-01T00:33:55;13.60;99.90
7331;DHT22;3706;49.198;7.064;2022-09-01T00:36:22;13.60;99.90
7331;DHT22;3706;49.198;7.064;2022-09-01T00:38:51;13.50;99.90
7331;DHT22;3706;49.198;7.064;2022-09-01T00:41:20;13.50;99.90
7331;DHT22;3706;49.198;7.064;2022-09-01T00:43:50;13.50;99.90
7331;DHT22;3706;49.198;7.064;2022-09-01T00:46:20;13.50;99.90
7331;DHT22;3706;49.198;7.064;2022-09-01T00:48:52;13.50;99.90
7331;DHT22;3706;49.198;7.064;2022-09-01T00:51:19;13.50;99.90
7331;DHT22;3706;49.198;7.064;2022-09-01T00:53:47;13.50;99.90
7331;DHT22;3706;49.198;7.064;2022-09-01T00:56:14;13.50;99.90
7331;DHT22;3706;49.198;7.064;2022-09-01T00:58:41;13.50;99.90
7331;DHT22;3706;49.198;7.064;2022-09-01T01:01:10;13.40;99.90
7331;DHT22;3706;49.198;7.064;2022-09-01T01:03:38;13.40;99.90
7331;DHT22;3706;49.198;7.064;2022-09-01T01:06:09;13.30;99.90
7331;DHT22;3706;49.198;7.064;2022-09-01T01:08:41;13.30;99.90
7331;DHT22;3706;49.198;7.064;2022-09-01T01:11:11;13.30;99.90
7331;DHT22;3706;49.198;7.064;2022-09-01T01:13:49;13.20;99.90
7331;DHT22;3706;49.198;7.064;2022-09-01T01:16:19;13.20;99.90
7331;DHT22;3706;49.198;7.064;2022-09-01T01:18:46;13.20;99.90
7331;DHT22;3706;49.198;7.064;2022-09-01T01:21:18;13.30;99.90
7331;DHT22;3706;49.198;7.064;2022-09-01T01:24:16;13.20;99.90
7331;DHT22;3706;49.198;7.064;2022-09-01T01:26:44;13.30;99.90
7331;DHT22;3706;49.198;7.064;2022-09-01T01:29:12;13.30;99.90
7331;DHT22;3706;49.198;7.064;2022-09-01T01:31:39;13.20;99.90
7331;DHT22;3706;49.198;7.064;2022-09-01T01:34:06;13.30;99.90
7331;DHT22;3706;49.198;7.064;2022-09-01T01:36:36;13.20;99.90
7331;DHT22;3706;49.198;7.064;2022-09-01T01:39:07;13.20;99.90
7331;DHT22;3706;49.198;7.064;2022-09-01T01:41:37;13.20;99.90
7331;DHT22;3706;49.198;7.064;2022-09-01T01:44:07;13.10;99.90
7331;DHT22;3706;49.198;7.064;2022-09-01T01:46:35;13.10;99.90
7331;DHT22;3706;49.198;7.064;2022-09-01T01:49:03;13.00;99.90
7331;DHT22;3706;49.198;7.064;2022-09-01T01:51:30;13.00;99.90
7331;DHT22;3706;49.198;7.064;2022-09-01T01:53:57;13.00;99.90
7331;DHT22;3706;49.198;7.064;2022-09-01T01:56:31;13.00;99.90
7331;DHT22;3706;49.198;7.064;2022-09-01T01:58:59;13.00;99.90
7331;DHT22;3706;49.198;7.064;2022-09-01T02:01:28;13.00;99.90
7331;DHT22;3706;49.198;7.064;2022-09-01T02:03:57;13.00;99.90
7331;DHT22;3706;49.198;7.064;2022-09-01T02:06:25;12.90;99.90
7331;DHT22;3706;49.198;7.064;2022-09-01T02:08:54;12.90;99.90
7331;DHT22;3706;49.198;7.064;2022-09-01T02:11:22;12.90;99.90
7331;DHT22;3706;49.198;7.064;2022-09-01T02:13:50;12.90;99.90
7331;DHT22;3706;49.198;7.064;2022-09-01T02:16:24;12.90;99.90
7331;DHT22;3706;49.198;7.064;2022-09-01T02:18:51;12.90;99.90
7331;DHT22;3706;49.198;7.064;2022-09-01T02:21:21;12.90;99.90
7331;DHT22;3706;49.198;7.064;2022-09-01T02:23:51;12.90;99.90
7331;DHT22;3706;49.198;7.064;2022-09-01T02:26:22;12.90;99.90
7331;DHT22;3706;49.198;7.064;2022-09-01T02:28:56;12.80;99.90
7331;DHT22;3706;49.198;7.064;2022-09-01T02:31:27;12.80;99.90
7331;DHT22;3706;49.198;7.064;2022-09-01T02:33:54;12.80;99.90
7331;DHT22;3706;49.198;7.064;2022-09-01T02:36:21;12.90;99.90
7331;DHT22;3706;49.198;7.064;2022-09-01T02:38:50;12.80;99.90
7331;DHT22;3706;49.198;7.064;2022-09-01T02:41:18;12.80;99.90
7331;DHT22;3706;49.198;7.064;2022-09-01T02:43:48;12.80;99.90
7331;DHT22;3706;49.198;7.064;2022-09-01T02:46:16;12.70;99.90
7331;DHT22;3706;49.198;7.064;2022-09-01T02:48:44;12.80;99.90
7331;DHT22;3706;49.198;7.064;2022-09-01T02:51:15;12.80;99.90
7331;DHT22;3706;49.198;7.064;2022-09-01T02:53:44;12.70;99.90
7331;DHT22;3706;49.198;7.064;2022-09-01T02:56:14;12.60;99.90
7331;DHT22;3706;49.198;7.064;2022-09-01T02:58:45;12.60;99.90
7331;DHT22;3706;49.198;7.064;2022-09-01T03:01:16;12.60;99.90
7331;DHT22;3706;49.198;7.064;2022-09-01T03:03:46;12.50;99.90
7331;DHT22;3706;49.198;7.064;2022-09-01T03:06:14;12.50;99.90
7331;DHT22;3706;49.198;7.064;2022-09-01T03:08:43;12.50;99.90
7331;DHT22;3706;49.198;7.064;2022-09-01T03:11:10;12.50;99.90
7331;DHT22;3706;49.198;7.064;2022-09-01T03:13:38;12.60;99.90
7331;DHT22;3706;49.198;7.064;2022-09-01T03:16:06;12.60;99.90
7331;DHT22;3706;49.198;7.064;2022-09-01T03:18:33;12.50;99.90
7331;DHT22;3706;49.198;7.064;2022-09-01T03:21:03;12.40;99.90
7331;DHT22;3706;49.198;7.064;2022-09-01T03:23:31;12.40;99.90
7331;DHT22;3706;49.198;7.064;2022-09-01T03:25:59;12.30;99.90
7331;DHT22;3706;49.198;7.064;2022-09-01T03:28:27;12.30;99.90
7331;DHT22;3706;49.198;7.064;2022-09-01T03:30:55;12.30;99.90
7331;DHT22;3706;49.198;7.064;2022-09-01T03:33:24;12.30;99.90
7331;DHT22;3706;49.198;7.064;2022-09-01T03:35:52;12.30;99.90
7331;DHT22;3706;49.198;7.064;2022-09-01T03:38:21;12.30;99.90
7331;DHT22;3706;49.198;7.064;2022-09-01T03:40:49;12.30;99.90
7331;DHT22;3706;49.198;7.064;2022-09-01T03:43:18;12.40;99.90
7331;DHT22;3706;49.198;7.064;2022-09-01T03:45:48;12.40;99.90
7331;DHT22;3706;49.198;7.064;2022-09-01T03:48:15;12.40;99.90
7331;DHT22;3706;49.198;7.064;2022-09-01T03:50:43;12.40;99.90
7331;DHT22;3706;49.198;7.064;2022-09-01T03:53:12;12.40;99.90
7331;DHT22;3706;49.198;7.064;2022-09-01T03:55:43;12.40;99.90
7331;DHT22;3706;49.198;7.064;2022-09-01T03:58:12;12.50;99.90
7331;DHT22;3706;49.198;7.064;2022-09-01T04:00:45;12.40;99.90
7331;DHT22;3706;49.198;7.064;2022-09-01T04:03:13;12.40;99.90
7331;DHT22;3706;49.198;7.064;2022-09-01T04:05:46;12.40;99.90
7331;DHT22;3706;49.198;7.064;2022-09-01T04:08:14;12.30;99.90
7331;DHT22;3706;49.198;7.064;2022-09-01T04:10:45;12.30;99.90
7331;DHT22;3706;49.198;7.064;2022-09-01T04:13:15;12.20;99.90
7331;DHT22;3706;49.198;7.064;2022-09-01T04:15:42;12.20;99.90
7331;DHT22;3706;49.198;7.064;2022-09-01T04:18:09;12.10;99.90
7331;DHT22;3706;49.198;7.064;2022-09-01T04:20:38;12.20;99.90
7331;DHT22;3706;49.198;7.064;2022-09-01T04:23:14;12.20;99.90
7331;DHT22;3706;49.198;7.064;2022-09-01T04:25:47;12.10;99.90
7331;DHT22;3706;49.198;7.064;2022-09-01T04:28:15;12.10;99.90
7331;DHT22;3706;49.198;7.064;2022-09-01T04:30:49;12.10;99.90
7331;DHT22;3706;49.198;7.064;2022-09-01T04:33:16;12.10;99.90
7331;DHT22;3706;49.198;7.064;2022-09-01T04:35:43;12.10;99.90
7331;DHT22;3706;49.198;7.064;2022-09-01T04:38:10;12.10;99.90
7331;DHT22;3706;49.198;7.064;2022-09-01T04:40:41;12.10;99.90
7331;DHT22;3706;49.198;7.064;2022-09-01T04:43:09;12.00;99.90
7331;DHT22;3706;49.198;7.064;2022-09-01T04:45:36;12.00;99.90
7331;DHT22;3706;49.198;7.064;2022-09-01T04:48:04;11.90;99.90
7331;DHT22;3706;49.198;7.064;2022-09-01T04:50:31;12.00;99.90
7331;DHT22;3706;49.198;7.064;2022-09-01T04:53:00;12.00;99.90
7331;DHT22;3706;49.198;7.064;2022-09-01T04:55:28;11.90;99.90
7331;DHT22;3706;49.198;7.064;2022-09-01T04:57:57;12.00;99.90
7331;DHT22;3706;49.198;7.064;2022-09-01T05:00:26;12.10;99.90
7331;DHT22;3706;49.198;7.064;2022-09-01T05:02:58;12.10;99.90
7331;DHT22;3706;49.198;7.064;2022-09-01T05:05:34;12.20;99.90
7331;DHT22;3706;49.198;7.064;2022-09-01T05:08:04;12.30;99.90
7331;DHT22;3706;49.198;7.064;2022-09-01T05:10:31;12.40;99.90
7331;DHT22;3706;49.198;7.064;2022-09-01T05:13:00;12.40;99.90
7331;DHT22;3706;49.198;7.064;2022-09-01T05:15:36;12.40;99.90
7331;DHT22;3706;49.198;7.064;2022-09-01T05:18:03;12.50;99.90
7331;DHT22;3706;49.198;7.064;2022-09-01T05:20:38;12.50;99.90
7331;DHT22;3706;49.198;7.064;2022-09-01T05:23:08;12.60;99.90
7331;DHT22;3706;49.198;7.064;2022-09-01T05:25:38;12.60;99.90
7331;DHT22;3706;49.198;7.064;2022-09-01T05:28:07;12.60;99.90
7331;DHT22;3706;49.198;7.064;2022-09-01T05:30:39;12.60;99.90
7331;DHT22;3706;49.198;7.064;2022-09-01T05:33:07;12.60;99.90
7331;DHT22;3706;49.198;7.064;2022-09-01T05:35:36;12.80;99.90
7331;DHT22;3706;49.198;7.064;2022-09-01T05:38:06;12.80;99.90
7331;DHT22;3706;49.198;7.064;2022-09-01T05:40:40;12.90;99.90
7331;DHT22;3706;49.198;7.064;2022-09-01T05:43:09;13.10;99.90
7331;DHT22;3706;49.198;7.064;2022-09-01T05:45:39;13.10;99.90
7331;DHT22;3706;49.198;7.064;2022-09-01T05:48:09;13.10;99.90
7331;DHT22;3706;49.198;7.064;2022-09-01T05:50:39;13.30;99.90
7331;DHT22;3706;49.198;7.064;2022-09-01T05:53:07;13.80;99.90
7331;DHT22;3706;49.198;7.064;2022-09-01T05:55:41;14.60;99.90
7331;DHT22;3706;49.198;7.064;2022-09-01T05:58:08;15.60;99.90
7331;DHT22;3706;49.198;7.064;2022-09-01T06:00:40;16.50;99.90
7331;DHT22;3706;49.198;7.064;2022-09-01T06:03:09;17.40;99.90
7331;DHT22;3706;49.198;7.064;2022-09-01T06:05:36;18.30;99.90
7331;DHT22;3706;49.198;7.064;2022-09-01T06:08:05;19.20;99.90
7331;DHT22;3706;49.198;7.064;2022-09-01T06:10:32;19.80;99.90
7331;DHT22;3706;49.198;7.064;2022-09-01T06:13:05;20.30;99.90
7331;DHT22;3706;49.198;7.064;2022-09-01T06:15:33;20.90;99.90
7331;DHT22;3706;49.198;7.064;2022-09-01T06:18:05;21.50;99.90
7331;DHT22;3706;49.198;7.064;2022-09-01T06:20:37;22.20;99.90
7331;DHT22;3706;49.198;7.064;2022-09-01T06:23:05;22.80;99.50
7331;DHT22;3706;49.198;7.064;2022-09-01T06:25:35;23.50;96.90
7331;DHT22;3706;49.198;7.064;2022-09-01T06:28:04;24.20;94.60
7331;DHT22;3706;49.198;7.064;2022-09-01T06:30:33;24.70;93.20
7331;DHT22;3706;49.198;7.064;2022-09-01T06:33:01;25.30;90.60
7331;DHT22;3706;49.198;7.064;2022-09-01T06:35:35;25.70;86.80
7331;DHT22;3706;49.198;7.064;2022-09-01T06:38:03;26.20;83.60
7331;DHT22;3706;49.198;7.064;2022-09-01T06:40:31;26.60;79.90
7331;DHT22;3706;49.198;7.064;2022-09-01T06:42:58;26.60;78.60
7331;DHT22;3706;49.198;7.064;2022-09-01T06:45:27;26.70;77.60
7331;DHT22;3706;49.198;7.064;2022-09-01T06:47:53;26.90;77.30
7331;DHT22;3706;49.198;7.064;2022-09-01T06:50:22;27.00;75.50
7331;DHT22;3706;49.198;7.064;2022-09-01T06:52:50;27.00;74.90
7331;DHT22;3706;49.198;7.064;2022-09-01T06:55:29;27.10;74.60
7331;DHT22;3706;49.198;7.064;2022-09-01T06:57:58;27.40;74.00
7331;DHT22;3706;49.198;7.064;2022-09-01T07:00:25;27.70;72.10
7331;DHT22;3706;49.198;7.064;2022-09-01T07:02:55;27.90;71.80
7331;DHT22;3706;49.198;7.064;2022-09-01T07:05:23;28.00;71.00
7331;DHT22;3706;49.198;7.064;2022-09-01T07:07:53;28.20;70.10
7331;DHT22;3706;49.198;7.064;2022-09-01T07:10:21;28.30;69.10
7331;DHT22;3706;49.198;7.064;2022-09-01T07:12:48;28.40;68.80
7331;DHT22;3706;49.198;7.064;2022-09-01T07:15:15;28.30;68.90
7331;DHT22;3706;49.198;7.064;2022-09-01T07:17:46;28.30;68.90
7331;DHT22;3706;49.198;7.064;2022-09-01T07:20:15;28.70;68.20
7331;DHT22;3706;49.198;7.064;2022-09-01T07:22:42;29.30;67.50
7331;DHT22;3706;49.198;7.064;2022-09-01T07:25:10;29.80;65.90
7331;DHT22;3706;49.198;7.064;2022-09-01T07:27:38;30.40;64.50
7331;DHT22;3706;49.198;7.064;2022-09-01T07:30:06;30.60;62.80
7331;DHT22;3706;49.198;7.064;2022-09-01T07:32:35;30.50;63.00
7331;DHT22;3706;49.198;7.064;2022-09-01T07:35:05;30.80;62.40
7331;DHT22;3706;49.198;7.064;2022-09-01T07:37:33;30.80;61.60
7331;DHT22;3706;49.198;7.064;2022-09-01T07:40:04;30.70;61.70
7331;DHT22;3706;49.198;7.064;2022-09-01T07:42:34;30.70;61.50
7331;DHT22;3706;49.198;7.064;2022-09-01T07:45:01;30.60;61.80
7331;DHT22;3706;49.198;7.064;2022-09-01T07:47:34;30.90;60.70
7331;DHT22;3706;49.198;7.064;2022-09-01T07:50:03;30.90;60.80
7331;DHT22;3706;49.198;7.064;2022-09-01T07:52:33;31.00;60.20
7331;DHT22;3706;49.198;7.064;2022-09-01T07:55:00;31.10;59.80
7331;DHT22;3706;49.198;7.064;2022-09-01T07:57:27;30.90;60.20
7331;DHT22;3706;49.198;7.064;2022-09-01T07:59:55;30.40;61.40
7331;DHT22;3706;49.198;7.064;2022-09-01T08:02:22;30.40;61.60
7331;DHT22;3706;49.198;7.064;2022-09-01T08:04:50;30.60;61.40
7331;DHT22;3706;49.198;7.064;2022-09-01T08:07:17;30.90;60.70
7331;DHT22;3706;49.198;7.064;2022-09-01T08:09:45;31.20;60.20
7331;DHT22;3706;49.198;7.064;2022-09-01T08:12:12;31.20;59.90
7331;DHT22;3706;49.198;7.064;2022-09-01T08:14:39;31.20;59.70
7331;DHT22;3706;49.198;7.064;2022-09-01T08:17:07;31.10;60.30
7331;DHT22;3706;49.198;7.064;2022-09-01T08:19:35;31.40;59.90
7331;DHT22;3706;49.198;7.064;2022-09-01T08:22:02;31.60;59.70
7331;DHT22;3706;49.198;7.064;2022-09-01T08:24:29;31.60;59.30
7331;DHT22;3706;49.198;7.064;2022-09-01T08:26:56;31.50;59.20
7331;DHT22;3706;49.198;7.064;2022-09-01T08:29:23;31.10;59.80
7331;DHT22;3706;49.198;7.064;2022-09-01T08:31:50;30.90;60.20
7331;DHT22;3706;49.198;7.064;2022-09-01T08:34:19;31.00;60.80
7331;DHT22;3706;49.198;7.064;2022-09-01T08:36:46;31.30;60.00
7331;DHT22;3706;49.198;7.064;2022-09-01T08:39:13;31.40;60.10
7331;DHT22;3706;49.198;7.064;2022-09-01T08:41:42;31.50;59.70
7331;DHT22;3706;49.198;7.064;2022-09-01T08:44:17;31.50;59.70
7331;DHT22;3706;49.198;7.064;2022-09-01T08:46:47;31.20;60.10
7331;DHT22;3706;49.198;7.064;2022-09-01T08:49:20;30.80;61.10
7331;DHT22;3706;49.198;7.064;2022-09-01T08:51:51;30.60;61.80
7331;DHT22;3706;49.198;7.064;2022-09-01T08:54:22;30.60;61.70
7331;DHT22;3706;49.198;7.064;2022-09-01T08:56:52;30.70;61.50
7331;DHT22;3706;49.198;7.064;2022-09-01T08:59:20;31.00;61.10
7331;DHT22;3706;49.198;7.064;2022-09-01T09:01:56;31.20;60.70
7331;DHT22;3706;49.198;7.064;2022-09-01T09:04:46;31.40;60.20
7331;DHT22;3706;49.198;7.064;2022-09-01T09:07:23;31.60;59.70
7331;DHT22;3706;49.198;7.064;2022-09-01T09:09:58;31.60;59.80
7331;DHT22;3706;49.198;7.064;2022-09-01T09:12:43;31.90;59.80
7331;DHT22;3706;49.198;7.064;2022-09-01T09:15:21;32.30;58.40
7331;DHT22;3706;49.198;7.064;2022-09-01T09:17:56;32.00;58.60
7331;DHT22;3706;49.198;7.064;2022-09-01T09:20:27;31.00;60.00
7331;DHT22;3706;49.198;7.064;2022-09-01T09:22:54;30.30;61.80
7331;DHT22;3706;49.198;7.064;2022-09-01T09:25:22;30.30;62.40
7331;DHT22;3706;49.198;7.064;2022-09-01T09:27:50;30.80;61.30
7331;DHT22;3706;49.198;7.064;2022-09-01T09:30:20;30.90;61.20
7331;DHT22;3706;49.198;7.064;2022-09-01T09:32:50;31.00;60.80
7331;DHT22;3706;49.198;7.064;2022-09-01T09:35:24;31.00;60.50
7331;DHT22;3706;49.198;7.064;2022-09-01T09:37:53;31.30;60.30
7331;DHT22;3706;49.198;7.064;2022-09-01T09:40:21;31.30;60.00
7331;DHT22;3706;49.198;7.064;2022-09-01T09:43:04;31.40;59.70
7331;DHT22;3706;49.198;7.064;2022-09-01T09:45:34;31.70;59.90
7331;DHT22;3706;49.198;7.064;2022-09-01T09:48:05;31.70;59.30
7331;DHT22;3706;49.198;7.064;2022-09-01T09:50:35;31.50;59.60
7331;DHT22;3706;49.198;7.064;2022-09-01T09:53:13;31.20;59.60
7331;DHT22;3706;49.198;7.064;2022-09-01T09:55:57;30.50;60.60
7331;DHT22;3706;49.198;7.064;2022-09-01T09:58:26;30.20;61.00
7331;DHT22;3706;49.198;7.064;2022-09-01T10:01:00;29.90;61.80
7331;DHT22;3706;49.198;7.064;2022-09-01T10:03:42;29.70;62.00
7331;DHT22;3706;49.198;7.064;2022-09-01T10:06:11;29.70;62.60
7331;DHT22;3706;49.198;7.064;2022-09-01T10:08:42;29.60;62.50
7331;DHT22;3706;49.198;7.064;2022-09-01T10:11:26;29.00;63.30
7331;DHT22;3706;49.198;7.064;2022-09-01T10:13:54;28.00;65.20
7331;DHT22;3706;49.198;7.064;2022-09-01T10:16:25;27.30;67.10
7331;DHT22;3706;49.198;7.064;2022-09-01T10:18:54;27.20;68.20
7331;DHT22;3706;49.198;7.064;2022-09-01T10:21:30;28.00;66.90
7331;DHT22;3706;49.198;7.064;2022-09-01T10:24:00;28.70;64.90
7331;DHT22;3706;49.198;7.064;2022-09-01T10:26:31;29.20;63.80
7331;DHT22;3706;49.198;7.064;2022-09-01T10:29:06;29.10;63.10
7331;DHT22;3706;49.198;7.064;2022-09-01T10:31:34;29.10;63.90
7331;DHT22;3706;49.198;7.064;2022-09-01T10:34:03;29.90;62.80
7331;DHT22;3706;49.198;7.064;2022-09-01T10:36:32;30.70;61.10
7331;DHT22;3706;49.198;7.064;2022-09-01T10:39:01;31.00;60.10
7331;DHT22;3706;49.198;7.064;2022-09-01T10:41:50;31.70;58.70
7331;DHT22;3706;49.198;7.064;2022-09-01T10:44:21;32.40;57.60
7331;DHT22;3706;49.198;7.064;2022-09-01T10:46:49;32.80;56.40
7331;DHT22;3706;49.198;7.064;2022-09-01T10:55:18;29.90;60.40
7331;DHT22;3706;49.198;7.064;2022-09-01T10:57:55;29.30;62.50
7331;DHT22;3706;49.198;7.064;2022-09-01T11:00:43;29.80;62.00
7331;DHT22;3706;49.198;7.064;2022-09-01T11:06:56;30.70;59.50
7331;DHT22;3706;49.198;7.064;2022-09-01T11:09:28;30.30;59.30
7331;DHT22;3706;49.198;7.064;2022-09-01T11:12:23;29.10;61.50
7331;DHT22;3706;49.198;7.064;2022-09-01T11:14:56;28.80;62.60
7331;DHT22;3706;49.198;7.064;2022-09-01T11:17:25;28.40;63.30
7331;DHT22;3706;49.198;7.064;2022-09-01T11:20:06;28.30;64.10
7331;DHT22;3706;49.198;7.064;2022-09-01T11:22:38;28.00;64.60
7331;DHT22;3706;49.198;7.064;2022-09-01T11:25:32;27.60;65.20
7331;DHT22;3706;49.198;7.064;2022-09-01T11:31:10;26.60;67.20
7331;DHT22;3706;49.198;7.064;2022-09-01T11:33:47;27.00;67.20
7331;DHT22;3706;49.198;7.064;2022-09-01T11:36:25;27.40;66.60
7331;DHT22;3706;49.198;7.064;2022-09-01T11:39:01;28.30;63.80
7331;DHT22;3706;49.198;7.064;2022-09-01T11:41:33;28.60;62.70
7331;DHT22;3706;49.198;7.064;2022-09-01T11:44:11;28.20;62.80
7331;DHT22;3706;49.198;7.064;2022-09-01T11:46:38;27.40;64.70
7331;DHT22;3706;49.198;7.064;2022-09-01T11:49:23;27.10;66.00
7331;DHT22;3706;49.198;7.064;2022-09-01T11:51:51;27.60;65.30
7331;DHT22;3706;49.198;7.064;2022-09-01T11:54:19;27.80;64.60
7331;DHT22;3706;49.198;7.064;2022-09-01T11:56:46;27.70;64.40
7331;DHT22;3706;49.198;7.064;2022-09-01T11:59:18;27.80;65.20
7331;DHT22;3706;49.198;7.064;2022-09-01T12:01:56;28.30;63.70
7331;DHT22;3706;49.198;7.064;2022-09-01T12:04:25;28.50;63.60
7331;DHT22;3706;49.198;7.064;2022-09-01T12:06:58;28.10;63.40
7331;DHT22;3706;49.198;7.064;2022-09-01T12:09:35;27.50;64.70
7331;DHT22;3706;49.198;7.064;2022-09-01T12:12:04;27.00;66.00
7331;DHT22;3706;49.198;7.064;2022-09-01T12:14:33;26.70;67.10
7331;DHT22;3706;49.198;7.064;2022-09-01T12:17:02;26.60;68.00
7331;DHT22;3706;49.198;7.064;2022-09-01T12:19:31;27.10;67.50
7331;DHT22;3706;49.198;7.064;2022-09-01T12:22:00;27.50;65.90
7331;DHT22;3706;49.198;7.064;2022-09-01T12:24:31;27.70;64.80
7331;DHT22;3706;49.198;7.064;2022-09-01T12:27:00;27.90;64.80
7331;DHT22;3706;49.198;7.064;2022-09-01T12:29:28;28.70;63.30
7331;DHT22;3706;49.198;7.064;2022-09-01T12:31:58;29.00;62.20
7331;DHT22;3706;49.198;7.064;2022-09-01T12:34:34;28.70;62.00
7331;DHT22;3706;49.198;7.064;2022-09-01T12:37:07;28.20;63.30
7331;DHT22;3706;49.198;7.064;2022-09-01T12:39:37;27.70;64.20
7331;DHT22;3706;49.198;7.064;2022-09-01T12:42:07;27.70;64.30
7331;DHT22;3706;49.198;7.064;2022-09-01T12:44:43;27.70;64.40
7331;DHT22;3706;49.198;7.064;2022-09-01T12:47:46;27.40;64.50
7331;DHT22;3706;49.198;7.064;2022-09-01T12:50:42;27.50;64.60
7331;DHT22;3706;49.198;7.064;2022-09-01T12:53:22;28.00;63.30
7331;DHT22;3706;49.198;7.064;2022-09-01T12:56:22;28.70;62.40
7331;DHT22;3706;49.198;7.064;2022-09-01T12:59:05;29.10;61.70
7331;DHT22;3706;49.198;7.064;2022-09-01T13:01:33;29.40;61.20
7331;DHT22;3706;49.198;7.064;2022-09-01T13:04:13;29.50;60.50
7331;DHT22;3706;49.198;7.064;2022-09-01T13:06:41;28.80;61.20
7331;DHT22;3706;49.198;7.064;2022-09-01T13:09:08;28.20;62.50
7331;DHT22;3706;49.198;7.064;2022-09-01T13:11:35;28.10;63.70
7331;DHT22;3706;49.198;7.064;2022-09-01T13:14:02;28.30;62.90
7331;DHT22;3706;49.198;7.064;2022-09-01T13:16:29;28.50;62.60
7331;DHT22;3706;49.198;7.064;2022-09-01T13:18:56;29.10;61.60
7331;DHT22;3706;49.198;7.064;2022-09-01T13:21:24;29.10;61.00
7331;DHT22;3706;49.198;7.064;2022-09-01T13:23:52;28.60;61.30
7331;DHT22;3706;49.198;7.064;2022-09-01T13:26:19;28.10;62.20
7331;DHT22;3706;49.198;7.064;2022-09-01T13:28:46;27.80;62.90
7331;DHT22;3706;49.198;7.064;2022-09-01T13:31:13;27.60;63.50
7331;DHT22;3706;49.198;7.064;2022-09-01T13:33:40;27.20;64.40
7331;DHT22;3706;49.198;7.064;2022-09-01T13:36:07;27.00;65.40
7331;DHT22;3706;49.198;7.064;2022-09-01T13:38:35;26.90;65.20
7331;DHT22;3706;49.198;7.064;2022-09-01T13:41:04;26.70;65.60
7331;DHT22;3706;49.198;7.064;2022-09-01T13:43:32;26.30;66.30
7331;DHT22;3706;49.198;7.064;2022-09-01T13:46:00;25.90;66.90
7331;DHT22;3706;49.198;7.064;2022-09-01T13:48:27;25.90;67.30
7331;DHT22;3706;49.198;7.064;2022-09-01T13:50:54;26.00;67.50
7331;DHT22;3706;49.198;7.064;2022-09-01T13:53:21;26.40;66.80
7331;DHT22;3706;49.198;7.064;2022-09-01T13:55:49;26.70;66.20
7331;DHT22;3706;49.198;7.064;2022-09-01T13:58:16;26.90;65.70
7331;DHT22;3706;49.198;7.064;2022-09-01T14:00:45;27.10;65.10
7331;DHT22;3706;49.198;7.064;2022-09-01T14:03:15;27.00;64.70
7331;DHT22;3706;49.198;7.064;2022-09-01T14:05:45;27.10;64.90
7331;DHT22;3706;49.198;7.064;2022-09-01T14:08:14;27.20;64.30
7331;DHT22;3706;49.198;7.064;2022-09-01T14:10:43;27.20;64.20
7331;DHT22;3706;49.198;7.064;2022-09-01T14:13:12;27.10;63.80
7331;DHT22;3706;49.198;7.064;2022-09-01T14:15:39;26.80;64.20
7331;DHT22;3706;49.198;7.064;2022-09-01T14:18:07;26.50;64.80
7331;DHT22;3706;49.198;7.064;2022-09-01T14:20:35;26.20;65.30
7331;DHT22;3706;49.198;7.064;2022-09-01T14:23:04;26.00;64.90
7331;DHT22;3706;49.198;7.064;2022-09-01T14:25:33;25.80;65.40
7331;DHT22;3706;49.198;7.064;2022-09-01T14:28:00;25.70;65.80
7331;DHT22;3706;49.198;7.064;2022-09-01T14:30:30;25.80;65.60
7331;DHT22;3706;49.198;7.064;2022-09-01T14:32:58;26.00;64.90
7331;DHT22;3706;49.198;7.064;2022-09-01T14:35:25;26.20;64.60
7331;DHT22;3706;49.198;7.064;2022-09-01T14:37:53;26.30;65.00
7331;DHT22;3706;49.198;7.064;2022-09-01T14:40:22;26.50;63.80
7331;DHT22;3706;49.198;7.064;2022-09-01T14:42:51;26.70;63.70
7331;DHT22;3706;49.198;7.064;2022-09-01T14:45:20;26.90;63.10
7331;DHT22;3706;49.198;7.064;2022-09-01T14:47:51;26.90;63.50
7331;DHT22;3706;49.198;7.064;2022-09-01T14:50:19;27.00;62.70
7331;DHT22;3706;49.198;7.064;2022-09-01T14:52:47;26.90;62.60
7331;DHT22;3706;49.198;7.064;2022-09-01T14:55:15;26.80;62.30
7331;DHT22;3706;49.198;7.064;2022-09-01T14:57:42;26.70;62.50
7331;DHT22;3706;49.198;7.064;2022-09-01T15:00:11;26.40;63.00
7331;DHT22;3706;49.198;7.064;2022-09-01T15:02:40;26.10;63.80
7331;DHT22;3706;49.198;7.064;2022-09-01T15:05:11;25.80;64.40
7331;DHT22;3706;49.198;7.064;2022-09-01T15:07:38;25.70;64.50
7331;DHT22;3706;49.198;7.064;2022-09-01T15:10:07;25.60;63.80
7331;DHT22;3706;49.198;7.064;2022-09-01T15:12:35;25.50;64.10
7331;DHT22;3706;49.198;7.064;2022-09-01T15:15:05;25.50;64.00
7331;DHT22;3706;49.198;7.064;2022-09-01T15:17:32;25.60;64.20
7331;DHT22;3706;49.198;7.064;2022-09-01T15:20:00;25.70;64.50
7331;DHT22;3706;49.198;7.064;2022-09-01T15:22:42;25.70;64.70
7331;DHT22;3706;49.198;7.064;2022-09-01T15:25:09;25.80;64.70
7331;DHT22;3706;49.198;7.064;2022-09-01T15:27:36;25.90;65.00
7331;DHT22;3706;49.198;7.064;2022-09-01T15:30:03;25.80;65.40
7331;DHT22;3706;49.198;7.064;2022-09-01T15:32:40;25.70;65.40
7331;DHT22;3706;49.198;7.064;2022-09-01T15:35:08;25.80;64.90
7331;DHT22;3706;49.198;7.064;2022-09-01T15:37:35;25.90;64.40
7331;DHT22;3706;49.198;7.064;2022-09-01T15:40:05;25.80;64.40
7331;DHT22;3706;49.198;7.064;2022-09-01T15:42:33;25.70;64.70
7331;DHT22;3706;49.198;7.064;2022-09-01T15:45:00;25.70;65.30
7331;DHT22;3706;49.198;7.064;2022-09-01T15:47:29;25.70;65.20
7331;DHT22;3706;49.198;7.064;2022-09-01T15:49:56;25.60;64.90
7331;DHT22;3706;49.198;7.064;2022-09-01T15:52:23;25.50;65.30
7331;DHT22;3706;49.198;7.064;2022-09-01T15:54:50;25.50;65.70
7331;DHT22;3706;49.198;7.064;2022-09-01T15:57:19;25.60;65.60
7331;DHT22;3706;49.198;7.064;2022-09-01T15:59:46;25.70;65.40
7331;DHT22;3706;49.198;7.064;2022-09-01T16:02:13;25.80;65.20
7331;DHT22;3706;49.198;7.064;2022-09-01T16:04:45;25.90;65.60
7331;DHT22;3706;49.198;7.064;2022-09-01T16:07:12;25.90;65.00
7331;DHT22;3706;49.198;7.064;2022-09-01T16:09:39;25.90;64.50
7331;DHT22;3706;49.198;7.064;2022-09-01T16:12:06;25.80;65.20
7331;DHT22;3706;49.198;7.064;2022-09-01T16:14:35;25.60;65.60
7331;DHT22;3706;49.198;7.064;2022-09-01T16:17:05;25.40;65.80
7331;DHT22;3706;49.198;7.064;2022-09-01T16:19:47;25.30;66.00
7331;DHT22;3706;49.198;7.064;2022-09-01T16:22:21;25.10;66.30
7331;DHT22;3706;49.198;7.064;2022-09-01T16:24:52;25.10;66.30
7331;DHT22;3706;49.198;7.064;2022-09-01T16:27:22;24.90;66.50
7331;DHT22;3706;49.198;7.064;2022-09-01T16:29:54;24.80;66.80
7331;DHT22;3706;49.198;7.064;2022-09-01T16:32:22;24.80;66.50
7331;DHT22;3706;49.198;7.064;2022-09-01T16:34:51;24.60;66.60